createdAt,value
2023-03-07T00:02:06.949Z,44.56
2023-03-07T00:07:10.337Z,44.60
2023-03-07T00:12:13.809Z,45.78
2023-03-07T00:17:18.628Z,43.94
2023-03-07T00:22:22.069Z,46.33
2023-03-07T00:27:25.629Z,44.67
2023-03-07T00:32:30.720Z,46.83
2023-03-07T00:37:34.154Z,46.29
2023-03-07T00:42:37.683Z,46.65
2023-03-07T00:47:42.497Z,47.24
2023-03-07T00:52:46.158Z,45.69
2023-03-07T00:57:49.893Z,44.84
2023-03-07T01:02:57.642Z,47.63
2023-03-07T01:08:01.122Z,48.62
2023-03-07T01:13:04.846Z,48.03
2023-03-07T01:18:11.416Z,48.06
2023-03-07T01:23:14.901Z,49.05
2023-03-07T01:28:18.505Z,50.65
2023-03-07T01:33:23.482Z,49.25
2023-03-07T01:38:28.232Z,48.46
2023-03-07T01:43:34.075Z,48.02
2023-03-07T01:48:53.857Z,48.15
2023-03-07T01:53:58.512Z,50.38
2023-03-07T01:59:02.489Z,49.45
2023-03-07T02:04:11.439Z,51.15
2023-03-07T02:09:18.401Z,53.91
2023-03-07T02:14:22.181Z,52.26
2023-03-07T02:19:46.399Z,51.87
2023-03-07T02:24:52.741Z,52.08
2023-03-07T02:29:58.329Z,52.71
2023-03-07T02:35:02.142Z,53.61
2023-03-07T02:40:08.442Z,53.92
2023-03-07T02:45:16.146Z,53.33
2023-03-07T02:50:20.557Z,52.24
2023-03-07T02:55:28.211Z,52.64
2023-03-07T03:00:40.033Z,51.06
2023-03-07T03:05:43.884Z,53.31
2023-03-07T03:10:47.561Z,53.95
2023-03-07T03:15:56.257Z,53.11
2023-03-07T03:20:59.827Z,52.18
2023-03-07T03:26:07.512Z,50.86
2023-03-07T03:31:15.186Z,52.07
2023-03-07T03:36:19.480Z,52.86
2023-03-07T03:41:26.304Z,51.54
2023-03-07T03:46:32.184Z,50.93
2023-03-07T03:51:37.041Z,50.01
2023-03-07T03:56:40.527Z,50.74
2023-03-07T04:01:46.170Z,49.55
2023-03-07T04:06:49.833Z,49.55
2023-03-07T04:11:53.778Z,50.36
2023-03-07T04:16:58.703Z,50.41
2023-03-07T04:22:02.404Z,51.29
2023-03-07T04:27:07.268Z,51.57
2023-03-07T04:32:13.767Z,51.70
2023-03-07T04:37:17.416Z,52.04
2023-03-07T04:42:20.932Z,51.34
2023-03-07T04:47:25.821Z,51.91
2023-03-07T04:52:30.663Z,51.01
2023-03-07T04:57:34.407Z,50.91
2023-03-07T05:02:39.516Z,51.54
2023-03-07T05:07:44.079Z,52.01
2023-03-07T05:12:48.301Z,52.63
2023-03-07T05:17:53.333Z,52.55
2023-03-07T05:22:57.211Z,52.67
2023-03-07T05:28:00.798Z,51.58
2023-03-07T05:33:05.808Z,52.54
2023-03-07T05:38:09.534Z,52.80
2023-03-07T05:43:13.345Z,52.52
2023-03-07T05:48:18.458Z,51.64
2023-03-07T05:53:22.060Z,51.71
2023-03-07T05:58:26.712Z,50.97
2023-03-07T06:03:31.905Z,50.30
2023-03-07T06:08:35.609Z,49.17
2023-03-07T06:13:39.987Z,50.69
2023-03-07T06:18:45.010Z,50.54
2023-03-07T06:23:48.604Z,51.59
2023-03-07T06:28:56.206Z,52.56
2023-03-07T06:34:03.840Z,51.64
2023-03-07T06:39:07.804Z,52.71
2023-03-07T06:44:12.000Z,50.83
2023-03-07T06:49:16.938Z,50.72
2023-03-07T06:54:23.371Z,48.55
2023-03-07T06:59:27.757Z,48.76
2023-03-07T07:04:33.857Z,50.63
2023-03-07T07:09:37.533Z,47.68
2023-03-07T07:14:41.857Z,47.53
2023-03-07T07:19:46.863Z,46.76
2023-03-07T07:24:50.494Z,46.91
2023-03-07T07:29:54.718Z,48.55
2023-03-07T07:34:59.656Z,48.92
2023-03-07T07:40:05.076Z,47.55
2023-03-07T07:45:09.485Z,45.94
2023-03-07T07:50:14.913Z,48.83
2023-03-07T07:55:18.858Z,46.04
2023-03-07T08:00:22.779Z,48.25
2023-03-07T08:05:27.765Z,48.62
2023-03-07T08:10:31.209Z,49.91
2023-03-07T08:15:34.650Z,49.87
2023-03-07T08:20:41.182Z,49.11
2023-03-07T08:25:44.827Z,47.85
2023-03-07T08:30:48.282Z,49.71
2023-03-07T08:35:53.174Z,49.31
2023-03-07T08:41:00.793Z,49.44
2023-03-07T08:46:04.965Z,49.84
2023-03-07T08:51:11.682Z,46.93
2023-03-07T08:56:16.614Z,46.25
2023-03-07T09:01:20.350Z,47.69
2023-03-07T09:06:25.359Z,49.38
2023-03-07T09:11:28.993Z,48.73
2023-03-07T09:16:32.574Z,48.70
2023-03-07T09:21:37.364Z,48.43
2023-03-07T09:26:40.790Z,48.79
2023-03-07T09:31:44.271Z,49.13
2023-03-07T09:36:51.272Z,50.84
2023-03-07T09:42:06.156Z,48.87
2023-03-07T09:47:26.430Z,48.42
2023-03-07T09:52:34.676Z,51.04
2023-03-07T09:57:42.583Z,48.18
2023-03-07T10:02:49.449Z,50.27
2023-03-07T10:07:55.773Z,49.55
2023-03-07T10:13:07.190Z,50.25
2023-03-07T10:18:18.094Z,49.76
2023-03-07T10:23:33.899Z,50.15
2023-03-07T10:28:41.843Z,50.88
2023-03-07T10:33:47.873Z,49.51
2023-03-07T10:38:58.776Z,48.57
2023-03-07T10:44:02.227Z,50.12
2023-03-07T10:49:11.331Z,49.85
2023-03-07T10:54:18.352Z,50.93
2023-03-07T10:59:26.232Z,50.94
2023-03-07T11:04:31.099Z,49.13
2023-03-07T11:09:36.817Z,49.36
2023-03-07T11:14:48.368Z,48.39
2023-03-07T11:19:55.328Z,48.70
2023-03-07T11:25:03.224Z,48.57
2023-03-07T11:30:09.340Z,49.32
2023-03-07T11:35:15.346Z,48.55
2023-03-07T11:40:25.012Z,48.85
2023-03-07T11:45:34.362Z,49.86
2023-03-07T11:50:38.744Z,49.70
2023-03-07T11:55:50.018Z,50.63
2023-03-07T12:01:06.114Z,51.13
2023-03-07T12:06:18.949Z,52.29
2023-03-07T12:11:41.028Z,50.29
2023-03-07T12:16:51.446Z,48.44
2023-03-07T12:22:11.565Z,50.49
2023-03-07T12:27:19.550Z,50.62
2023-03-07T12:32:26.273Z,49.33
2023-03-07T12:37:35.549Z,48.33
2023-03-07T12:42:44.573Z,48.23
2023-03-07T12:47:56.828Z,49.25
2023-03-07T12:53:05.933Z,48.64
2023-03-07T12:58:16.676Z,46.03
2023-03-07T13:03:28.074Z,44.81
2023-03-07T13:08:31.643Z,47.24
2023-03-07T13:13:55.345Z,45.62
2023-03-07T13:19:42.796Z,44.47
2023-03-07T13:24:47.156Z,45.02
2023-03-07T13:30:18.269Z,44.47
2023-03-07T13:35:53.956Z,43.84
2023-03-07T13:40:59.032Z,45.89
2023-03-07T13:46:05.956Z,50.04
2023-03-07T13:51:10.537Z,52.46
2023-03-07T13:56:25.080Z,48.61
2023-03-07T14:01:32.762Z,47.28
2023-03-07T14:06:40.219Z,46.26
2023-03-07T14:11:49.168Z,48.17
2023-03-07T14:17:09.316Z,47.91
2023-03-07T14:22:21.626Z,47.05
2023-03-07T14:27:25.108Z,48.64
2023-03-07T14:32:31.552Z,49.70
2023-03-07T14:37:35.008Z,50.68
2023-03-07T14:42:42.680Z,48.62
2023-03-07T14:48:02.195Z,49.48
2023-03-07T14:53:11.962Z,48.40
2023-03-07T14:58:18.229Z,48.67
2023-03-07T15:03:23.057Z,48.98
2023-03-07T15:08:28.243Z,50.62
2023-03-07T15:13:34.586Z,49.33
2023-03-07T15:18:41.517Z,48.16
2023-03-07T15:23:51.860Z,49.63
2023-03-07T15:29:00.381Z,48.31
2023-03-07T15:34:13.445Z,48.94
2023-03-07T15:39:33.026Z,49.81
2023-03-07T15:44:37.913Z,47.53
2023-03-07T15:49:45.306Z,48.45
2023-03-07T15:54:51.761Z,47.70
2023-03-07T16:00:00.247Z,48.51
2023-03-07T16:05:27.062Z,47.68
2023-03-07T16:10:32.783Z,49.13
2023-03-07T16:15:36.260Z,48.29
2023-03-07T16:20:41.423Z,49.23
2023-03-07T16:25:44.975Z,48.69
2023-03-07T16:30:48.537Z,49.96
2023-03-07T16:35:53.413Z,47.63
2023-03-07T16:40:58.053Z,47.56
2023-03-07T16:46:02.327Z,47.19
2023-03-07T16:51:07.572Z,47.10
2023-03-07T16:56:15.855Z,45.31
2023-03-07T17:01:19.376Z,45.46
2023-03-07T17:06:37.215Z,44.61
2023-03-07T17:11:45.607Z,45.49
2023-03-07T17:16:50.405Z,45.42
2023-03-07T17:21:55.528Z,45.41
2023-03-07T17:27:02.493Z,44.63
2023-03-07T17:32:06.428Z,44.81
2023-03-07T17:37:12.220Z,46.17
2023-03-07T17:42:15.712Z,46.50
2023-03-07T17:47:19.113Z,45.83
2023-03-07T17:52:24.169Z,45.90
2023-03-07T17:57:27.941Z,46.55
2023-03-07T18:02:31.533Z,47.13
2023-03-07T18:07:36.408Z,47.17
2023-03-07T18:12:40.310Z,46.41
2023-03-07T18:17:49.191Z,45.89
2023-03-07T18:22:54.149Z,46.56
2023-03-07T18:27:57.584Z,45.89
2023-03-07T18:33:01.065Z,47.32
2023-03-07T18:38:05.846Z,46.19
2023-03-07T18:43:09.352Z,45.66
2023-03-07T18:48:13.012Z,46.32
2023-03-07T18:53:17.900Z,47.16
2023-03-07T18:58:22.443Z,47.24
2023-03-07T19:03:25.945Z,46.88
2023-03-07T19:08:30.854Z,46.03
2023-03-07T19:13:34.881Z,46.01
2023-03-07T19:18:38.723Z,45.20
2023-03-07T19:23:43.741Z,46.17
2023-03-07T19:28:48.833Z,45.88
2023-03-07T19:33:53.300Z,46.49
2023-03-07T19:39:01.109Z,47.42
2023-03-07T19:44:06.426Z,45.57
2023-03-07T19:49:10.203Z,45.75
2023-03-07T19:54:15.971Z,47.73
2023-03-07T19:59:19.864Z,46.62
2023-03-07T20:04:23.327Z,46.88
2023-03-07T20:09:28.173Z,47.63
2023-03-07T20:14:31.706Z,46.84
2023-03-07T20:19:35.148Z,46.42
2023-03-07T20:24:40.168Z,47.04
2023-03-07T20:29:43.637Z,46.39
2023-03-07T20:34:47.104Z,46.47
2023-03-07T20:39:51.939Z,46.14
2023-03-07T20:44:55.550Z,46.08
2023-03-07T20:49:59.216Z,45.40
2023-03-07T20:55:04.926Z,46.29
2023-03-07T21:00:09.856Z,45.44
2023-03-07T21:05:13.273Z,46.45
2023-03-07T21:10:18.598Z,45.47
2023-03-07T21:15:22.201Z,47.40
2023-03-07T21:20:25.777Z,45.91
2023-03-07T21:25:33.636Z,47.45
2023-03-07T21:30:37.325Z,47.36
2023-03-07T21:35:41.332Z,47.44
2023-03-07T21:40:46.173Z,46.77
2023-03-07T21:45:49.650Z,46.93
2023-03-07T21:50:55.341Z,47.47
2023-03-07T21:56:01.560Z,47.57
2023-03-07T22:01:12.543Z,48.36
2023-03-07T22:06:16.696Z,48.31
2023-03-07T22:11:21.550Z,47.04
2023-03-07T22:16:25.091Z,48.06
2023-03-07T22:21:28.515Z,47.61
2023-03-07T22:26:33.871Z,47.05
2023-03-07T22:31:37.426Z,47.13
2023-03-07T22:36:40.856Z,46.73
2023-03-07T22:41:45.622Z,47.59
2023-03-07T22:46:50.557Z,47.16
2023-03-07T22:51:54.453Z,47.31
2023-03-07T22:56:59.356Z,48.16
2023-03-07T23:02:02.830Z,48.75
2023-03-07T23:07:06.324Z,47.91
2023-03-07T23:12:11.528Z,48.41
2023-03-07T23:17:15.164Z,48.24
2023-03-07T23:22:18.586Z,48.69
2023-03-07T23:27:23.421Z,50.21
2023-03-07T23:32:27.055Z,49.03
2023-03-07T23:37:30.512Z,47.64
2023-03-07T23:42:35.270Z,50.13
2023-03-07T23:47:39.544Z,48.57
2023-03-07T23:52:43.111Z,48.27
2023-03-07T23:57:48.546Z,47.89
